Provincetown, MA

8:00 AM EST on March 05, 2015 (GMT -0500)
Provincetown Municipal | Change Station
CLOSE
Current Station
Airport
Location: Provincetown,
Elevation: 7 ft
Nearby Weather Stations
Active Advisory: Winter Weather Advisory Active Notice: Public Information Statement

Elev 7 ft 42.07 °N, 70.22 °W | Updated 5 minutes ago

Overcast
Overcast
30 °F
Feels Like 21 °F
N
10
Wind Variable Wind from NNW

Today
High -- | Low -- °F
--% Chance of Precip.
Yesterday
High -- | Low -- °F
Precip. -- in
6:09 AM 5:35 PM
Full, 100% visible
Pressure 30.02 in
Visibility 1.0 miles
Clouds Overcast 800 ft
Windchill 21 °F
Dew Point 28 °F
Humidity 93%
Rainfall 0.00 in
Snow Depth Not available.
UV 0 out of 12
Pollen .40 out of 12
Air Quality Not available.
Flu Activity Not available.
METAR KPVC 051255Z 33009KT 1SM OVC008 M01/M02 A3002 RMK AO1

More Conditions Fewer Conditions

Pressure 30.02 in
Visibility 1.0 miles
Clouds Overcast 800 ft
Windchill 21 °F
Dew Point 28 °F
Humidity 93%
Rainfall 0.00 in
Snow Depth Not available.
UV 0 out of 12
Pollen .40 out of 12
Air Quality Not available.
Flu Activity Not available.
METAR KPVC 051255Z 33009KT 1SM OVC008 M01/M02 A3002 RMK AO1

More Conditions Fewer Conditions

10-Day Weather Forecast

Almanac

Astronomy

Mar. 05, 2015 Rise Set
Actual Time
Civil Twilight
Nautical Twilight
Astronomical Twilight
Moon
Length of Visible Light
Length of Day
Tomorrow will be .
, % of the Moon is Illuminated

Today's Extremes

State Highs State Lows

Community

WunderPhotos

Upload Photos

1,802,749 photos uploaded!

WunderBlogs® & News

Nearby

Air Quality

  Air Quality AQ Index Pollutant
Not available.

Snow Depth

Station Depth Elevation

Earthquake Activity

City Distance Mag. Time & Date
Minimum magnitude displayed is 2.5.

Coastal Water Temperatures

Place Temperature

Nearby Weather Stations

Winter Weather Advisory
Statement as of 4:13 AM EST on March 05, 2015

... Winter Weather Advisory remains in effect until 7 PM EST this
evening...

* locations... southern Rhode Island and south coastal
Massachusetts.

* Hazard types... snow.

* Accumulations... 3 to 5 inches of snow.

* Timing... snow will continue into early to mid afternoon.

* Impacts... slower than normal travel due to slippery roads.

* Visibilities... may be reduced to one-half mile at times.

Precautionary/preparedness actions...

A Winter Weather Advisory is issued for minor snow accumulations
which can have an affect on travel. Allow extra travel time and
be alert for slippery roads... especially on bridges and
overpasses.




For the latest updates... please visit our webpage at
www.Weather.Gov/Boston

You can follow US on facebook at
www.Facebook.Com/nwsboston